Time;durP1;ratioP1;P1;durP2;ratioP2;P2;SDS_P1;SDS_P2;PMS_P1;PMS_P2;Temp;Humidity;BMP_temperature;BMP_pressure;BME280_temperature;BME280_humidity;BME280_pressure;Samples;Min_cycle;Max_cycle;Signal;HPM_P1;HPM_P2
2023/09/02 00:01:17;;;;;;;18.80;14.48;;;18.10;87.70;;;;;;9180249;19;20018;-68
2023/09/02 00:04:25;;;;;;;26.13;15.60;;;19.00;90.10;;;;;;9179805;19;20015;-68
2023/09/02 00:07:32;;;;;;;21.73;13.88;;;18.10;88.80;;;;;;9179132;19;20493;-68
2023/09/02 00:10:40;;;;;;;21.08;14.38;;;17.70;90.40;;;;;;9180131;19;20363;-68
2023/09/02 00:13:45;;;;;;;18.85;15.15;;;18.20;86.70;;;;;;9178926;19;20029;-68
2023/09/02 00:16:52;;;;;;;23.83;16.30;;;18.10;86.70;;;;;;9179671;19;20082;-68
2023/09/02 00:19:58;;;;;;;20.23;14.43;;;18.10;86.20;;;;;;9177996;19;20095;-67
2023/09/02 00:23:08;;;;;;;21.50;15.15;;;18.10;85.10;;;;;;9179539;19;20048;-67
2023/09/02 00:26:14;;;;;;;22.02;13.93;;;18.00;85.40;;;;;;9172809;19;20555;-68
2023/09/02 00:29:26;;;;;;;24.40;15.07;;;18.00;86.60;;;;;;9177942;19;20074;-69
2023/09/02 00:32:37;;;;;;;20.65;15.73;;;18.00;90.50;;;;;;9180030;19;20030;-69
2023/09/02 00:35:45;;;;;;;19.38;14.20;;;17.80;82.70;;;;;;9178843;19;20021;-68
2023/09/02 00:38:53;;;;;;;21.17;14.40;;;17.90;83.40;;;;;;9177030;19;20019;-69
2023/09/02 00:42:02;;;;;;;20.85;14.80;;;17.90;83.60;;;;;;9178075;19;20014;-68
2023/09/02 00:45:09;;;;;;;23.90;15.32;;;17.90;83.60;;;;;;9178921;19;20056;-68
2023/09/02 00:48:16;;;;;;;20.27;15.90;;;17.90;84.50;;;;;;9178361;19;20019;-68
2023/09/02 00:51:21;;;;;;;24.50;15.60;;;17.90;85.40;;;;;;9177622;19;20048;-68
2023/09/02 00:54:33;;;;;;;21.42;15.52;;;17.90;86.80;;;;;;9176634;19;20017;-67
2023/09/02 00:57:39;;;;;;;24.25;15.88;;;17.90;89.10;;;;;;9178523;19;20018;-68
2023/09/02 01:00:47;;;;;;;17.73;13.70;;;17.90;90.30;;;;;;9177430;19;20384;-69
2023/09/02 01:03:52;;;;;;;20.17;14.10;;;17.90;92.40;;;;;;9178263;19;20030;-68
2023/09/02 01:07:02;;;;;;;22.98;14.68;;;;;;;;;;9177288;19;20029;-69
2023/09/02 01:10:12;;;;;;;21.92;15.13;;;16.90;89.30;;;;;;9177859;19;20014;-68
2023/09/02 01:13:19;;;;;;;22.30;14.13;;;17.90;86.50;;;;;;9177245;19;20029;-67
2023/09/02 01:16:25;;;;;;;24.05;15.40;;;17.80;86.20;;;;;;9177791;19;20015;-68
2023/09/02 01:19:32;;;;;;;24.92;13.73;;;17.80;87.80;;;;;;9181087;19;20359;-68
2023/09/02 01:23:02;;;;;;;20.70;13.88;;;17.80;90.50;;;;;;9185218;19;20014;-67
2023/09/02 01:26:32;;;;;;;21.40;14.90;;;17.80;85.90;;;;;;9184845;19;20062;-70
2023/09/02 01:29:46;;;;;;;20.48;14.23;;;17.80;87.00;;;;;;9189746;19;20014;-68
2023/09/02 01:32:55;;;;;;;23.23;14.02;;;17.70;87.70;;;;;;9188964;19;20479;-69
2023/09/02 01:36:01;;;;;;;19.75;14.25;;;17.70;91.50;;;;;;9186106;19;20741;-68
2023/09/02 01:39:10;;;;;;;22.38;13.60;;;17.70;89.40;;;;;;9187039;19;20014;-68
2023/09/02 01:42:16;;;;;;;26.15;15.73;;;17.70;90.00;;;;;;9187692;19;20375;-68
2023/09/02 01:45:29;;;;;;;20.95;14.75;;;17.60;90.50;;;;;;9185686;19;20018;-68
2023/09/02 01:48:36;;;;;;;21.13;15.25;;;17.60;91.10;;;;;;9184088;19;20015;-67
2023/09/02 01:51:44;;;;;;;24.50;15.65;;;17.60;92.70;;;;;;9186003;19;20026;-67
2023/09/02 01:54:49;;;;;;;25.15;15.43;;;17.60;91.10;;;;;;9182096;19;20479;-67
2023/09/02 01:57:58;;;;;;;24.33;16.40;;;17.60;90.80;;;;;;9184129;19;20018;-67
2023/09/02 02:01:06;;;;;;;24.83;15.88;;;17.60;91.50;;;;;;9183956;19;20440;-68
2023/09/02 02:04:26;;;;;;;24.17;16.40;;;17.70;93.50;;;;;;9183665;19;20027;-69
2023/09/02 02:07:36;;;;;;;24.65;16.00;;;17.50;90.30;;;;;;9183658;19;20494;-68
2023/09/02 02:10:45;;;;;;;27.70;16.90;;;17.50;90.30;;;;;;9184925;19;20025;-68
2023/09/02 02:13:51;;;;;;;28.48;15.85;;;17.30;91.00;;;;;;9182502;19;20478;-68
2023/09/02 02:17:02;;;;;;;25.85;17.40;;;17.50;91.60;;;;;;9184199;19;20006;-67
2023/09/02 02:20:09;;;;;;;32.58;15.85;;;17.40;90.40;;;;;;9182689;19;20015;-67
2023/09/02 02:23:19;;;;;;;25.13;16.83;;;17.40;88.80;;;;;;9184764;19;20022;-67
2023/09/02 02:26:24;;;;;;;28.02;16.13;;;17.40;87.60;;;;;;9178392;19;20018;-67
2023/09/02 02:29:31;;;;;;;26.40;17.15;;;17.40;89.50;;;;;;9184009;19;20014;-67
2023/09/02 02:32:40;;;;;;;22.42;15.68;;;17.40;90.60;;;;;;9181546;19;20018;-68
2023/09/02 02:35:47;;;;;;;23.23;16.20;;;17.30;90.70;;;;;;9178967;19;20018;-68
2023/09/02 02:38:52;;;;;;;27.50;16.27;;;17.30;91.50;;;;;;9178591;19;20015;-68
2023/09/02 02:42:00;;;;;;;25.05;16.70;;;17.30;87.90;;;;;;9181674;19;20022;-69
2023/09/02 02:45:06;;;;;;;28.20;16.48;;;17.30;87.70;;;;;;9183304;19;20015;-67
2023/09/02 02:48:17;;;;;;;25.05;16.17;;;17.30;88.50;;;;;;9183597;19;20021;-67
2023/09/02 02:51:22;;;;;;;27.17;16.25;;;17.30;89.70;;;;;;9182526;19;20416;-67
2023/09/02 02:54:30;;;;;;;22.27;16.33;;;17.30;90.20;;;;;;9179413;19;20095;-69
2023/09/02 02:57:38;;;;;;;27.58;16.80;;;17.30;90.00;;;;;;9181742;19;20014;-67
2023/09/02 03:00:48;;;;;;;24.50;15.88;;;17.20;90.50;;;;;;9181021;19;20025;-67
2023/09/02 03:03:58;;;;;;;25.13;16.35;;;17.30;90.60;;;;;;9180927;19;20015;-67
2023/09/02 03:07:06;;;;;;;23.67;17.17;;;17.30;92.10;;;;;;9181208;19;20026;-68
2023/09/02 03:10:12;;;;;;;26.25;15.65;;;17.30;90.30;;;;;;9181705;19;20010;-68
2023/09/02 03:13:19;;;;;;;29.52;17.15;;;17.30;90.70;;;;;;9180568;19;20039;-67
2023/09/02 03:16:25;;;;;;;23.45;16.90;;;17.30;90.30;;;;;;9178180;19;20710;-68
2023/09/02 03:19:35;;;;;;;24.42;16.20;;;17.30;90.80;;;;;;9180477;19;20029;-68
2023/09/02 03:22:42;;;;;;;23.42;16.83;;;17.30;90.70;;;;;;9179562;19;20010;-68
2023/09/02 03:25:50;;;;;;;32.75;15.98;;;17.30;91.20;;;;;;9176605;19;20010;-68
2023/09/02 03:28:55;;;;;;;25.73;16.70;;;17.30;91.80;;;;;;9177793;19;20651;-70
2023/09/02 03:32:04;;;;;;;26.75;17.25;;;17.10;84.60;;;;;;9177455;19;20401;-69
2023/09/02 03:35:12;;;;;;;24.80;17.42;;;17.10;84.60;;;;;;9178890;19;20056;-68
2023/09/02 03:38:19;;;;;;;30.45;16.40;;;17.10;84.70;;;;;;9179784;19;20029;-68
2023/09/02 03:41:25;;;;;;;29.33;16.67;;;17.10;84.60;;;;;;9177966;19;20018;-68
2023/09/02 03:44:32;;;;;;;28.58;18.55;;;17.10;84.70;;;;;;9180786;19;20025;-68
2023/09/02 03:47:37;;;;;;;31.92;18.55;;;17.10;84.70;;;;;;9179573;19;20487;-67
2023/09/02 03:51:11;;;;;;;27.05;17.10;;;17.10;85.40;;;;;;9178883;19;20119;-68
2023/09/02 03:54:20;;;;;;;25.17;17.63;;;17.10;84.80;;;;;;9179957;19;20025;-67
2023/09/02 03:57:28;;;;;;;27.85;19.00;;;17.10;84.70;;;;;;9180079;19;20021;-69
2023/09/02 04:00:33;;;;;;;30.00;17.50;;;17.10;84.80;;;;;;9179066;19;20025;-68
2023/09/02 04:03:41;;;;;;;28.15;17.73;;;17.10;84.80;;;;;;9178972;19;20010;-68
2023/09/02 04:06:52;;;;;;;24.35;16.70;;;17.10;84.80;;;;;;9178793;19;20066;-67
2023/09/02 04:09:59;;;;;;;26.90;16.95;;;17.10;85.00;;;;;;9179631;19;20484;-68
2023/09/02 04:13:04;;;;;;;30.38;17.08;;;17.10;84.90;;;;;;9177640;19;20019;-67
2023/09/02 04:16:12;;;;;;;30.83;17.83;;;17.10;85.00;;;;;;9175879;19;20106;-67
2023/09/02 04:19:20;;;;;;;30.55;18.25;;;17.10;85.00;;;;;;9177777;19;20043;-68
2023/09/02 04:22:29;;;;;;;24.50;16.73;;;17.10;85.10;;;;;;9178782;19;20057;-68
2023/09/02 04:25:44;;;;;;;27.80;16.83;;;17.10;85.10;;;;;;9177672;19;20011;-67
2023/09/02 04:28:52;;;;;;;27.23;16.55;;;17.10;85.10;;;;;;9175417;19;20023;-68
2023/09/02 04:31:59;;;;;;;28.92;16.13;;;17.10;85.10;;;;;;9178016;19;20025;-67
2023/09/02 04:35:07;;;;;;;27.33;16.25;;;17.10;85.30;;;;;;9177592;19;20014;-67
2023/09/02 04:38:15;;;;;;;31.85;17.92;;;17.10;85.30;;;;;;9177246;19;20022;-67
2023/09/02 04:41:26;;;;;;;28.85;16.58;;;17.10;85.60;;;;;;9177204;19;20022;-68
2023/09/02 04:44:34;;;;;;;29.02;15.98;;;17.10;86.80;;;;;;9177376;19;20014;-67
2023/09/02 04:47:42;;;;;;;26.48;16.73;;;17.10;87.70;;;;;;9176341;19;20029;-67
2023/09/02 04:50:54;;;;;;;31.20;18.55;;;17.20;90.70;;;;;;9176841;19;20771;-67
2023/09/02 04:54:06;;;;;;;27.83;16.85;;;17.10;87.30;;;;;;9173282;19;20114;-68
2023/09/02 04:57:13;;;;;;;33.30;16.80;;;17.00;85.80;;;;;;9171340;19;20014;-67
2023/09/02 05:00:21;;;;;;;34.33;18.00;;;17.00;85.70;;;;;;9175945;19;20014;-70
2023/09/02 05:03:28;;;;;;;29.83;16.60;;;17.00;86.00;;;;;;9177819;19;20010;-67
2023/09/02 05:06:36;;;;;;;33.33;17.05;;;17.10;87.00;;;;;;9174301;19;20050;-68
2023/09/02 05:09:44;;;;;;;30.98;18.35;;;17.00;87.30;;;;;;9167016;19;20014;-68
2023/09/02 05:12:52;;;;;;;36.15;16.83;;;17.00;86.10;;;;;;9170039;19;20475;-67
2023/09/02 05:15:58;;;;;;;30.80;18.50;;;16.90;86.20;;;;;;9168606;19;20018;-68
2023/09/02 05:19:05;;;;;;;30.48;18.27;;;17.00;89.50;;;;;;9169132;19;20545;-67
2023/09/02 05:22:12;;;;;;;29.75;18.42;;;16.90;86.00;;;;;;9170625;19;20026;-68
2023/09/02 05:25:22;;;;;;;32.58;19.75;;;16.90;87.00;;;;;;9173093;19;20026;-67
2023/09/02 05:28:28;;;;;;;27.67;17.92;;;17.00;89.10;;;;;;9172963;19;20432;-68
2023/09/02 05:31:37;;;;;;;30.02;18.25;;;17.00;92.30;;;;;;9175426;19;20521;-68
2023/09/02 05:34:43;;;;;;;28.60;18.58;;;17.00;91.30;;;;;;9174669;19;20014;-68
2023/09/02 05:37:51;;;;;;;33.95;18.05;;;17.00;91.20;;;;;;9173410;19;20022;-68
2023/09/02 05:40:59;;;;;;;31.92;17.98;;;16.90;91.20;;;;;;9175309;19;20018;-68
2023/09/02 05:44:06;;;;;;;33.95;18.83;;;17.00;91.60;;;;;;9174838;19;20356;-68
2023/09/02 05:47:12;;;;;;;26.67;17.85;;;17.00;92.50;;;;;;9177192;19;20044;-68
2023/09/02 05:50:20;;;;;;;31.90;18.83;;;17.00;90.90;;;;;;9174567;19;20017;-68
2023/09/02 05:53:25;;;;;;;29.10;18.73;;;17.00;91.00;;;;;;9175753;19;20018;-68
2023/09/02 05:56:35;;;;;;;39.58;20.42;;;17.00;91.10;;;;;;9174807;19;20062;-69
2023/09/02 05:59:41;;;;;;;35.95;18.48;;;17.00;91.50;;;;;;9176442;19;20506;-67
2023/09/02 06:02:48;;;;;;;32.40;17.33;;;17.00;91.50;;;;;;9176021;19;20021;-68
2023/09/02 06:05:54;;;;;;;35.72;19.00;;;17.00;91.60;;;;;;9180312;19;20052;-68
2023/09/02 06:09:01;;;;;;;33.28;18.98;;;17.10;91.70;;;;;;9182333;19;20353;-67
2023/09/02 06:12:10;;;;;;;30.80;20.13;;;17.10;92.10;;;;;;9184782;19;20095;-68
2023/09/02 06:15:17;;;;;;;34.08;20.50;;;17.10;92.80;;;;;;9183585;19;20018;-68
2023/09/02 06:18:22;;;;;;;36.10;21.70;;;17.10;93.40;;;;;;9181739;19;20018;-68
2023/09/02 06:21:29;;;;;;;35.65;20.55;;;17.20;92.00;;;;;;9181488;19;20022;-67
2023/09/02 06:24:35;;;;;;;35.38;20.42;;;17.20;92.40;;;;;;9183347;19;20025;-67
2023/09/02 06:27:44;;;;;;;31.00;20.48;;;17.20;94.60;;;;;;9178881;19;20482;-67
2023/09/02 06:30:50;;;;;;;31.95;20.90;;;17.30;95.50;;;;;;9183626;19;20003;-67
2023/09/02 06:33:57;;;;;;;31.52;20.30;;;17.20;93.60;;;;;;9183594;19;20460;-70
2023/09/02 06:37:03;;;;;;;40.72;21.02;;;17.20;92.00;;;;;;9182043;19;20026;-68
2023/09/02 06:40:10;;;;;;;35.88;20.75;;;17.20;91.80;;;;;;9184196;19;20022;-68
2023/09/02 06:43:18;;;;;;;39.35;21.60;;;17.20;92.30;;;;;;9184463;19;20010;-68
2023/09/02 06:46:26;;;;;;;38.67;21.45;;;17.30;90.70;;;;;;9183367;19;20010;-68
2023/09/02 06:49:33;;;;;;;48.97;21.25;;;17.40;90.60;;;;;;9182422;19;20029;-67
2023/09/02 06:52:41;;;;;;;31.95;20.55;;;17.40;90.90;;;;;;9183797;19;20048;-67
2023/09/02 06:55:46;;;;;;;39.33;21.02;;;17.40;90.90;;;;;;9184142;19;20085;-67
2023/09/02 06:58:56;;;;;;;38.65;21.40;;;17.40;92.00;;;;;;9179919;19;20743;-68
2023/09/02 07:02:02;;;;;;;39.25;22.17;;;17.40;91.50;;;;;;9183650;19;20017;-68
2023/09/02 07:05:10;;;;;;;38.35;22.13;;;17.50;91.40;;;;;;9182396;19;20018;-68
2023/09/02 07:08:15;;;;;;;35.67;21.25;;;17.50;91.30;;;;;;9181636;19;20018;-69
2023/09/02 07:11:22;;;;;;;43.85;22.95;;;17.50;92.60;;;;;;9182477;19;20022;-69
2023/09/02 07:14:30;;;;;;;38.05;22.17;;;17.50;89.90;;;;;;9183528;19;20018;-69
2023/09/02 07:17:38;;;;;;;37.70;22.08;;;17.60;90.40;;;;;;9177560;19;20018;-67
2023/09/02 07:20:43;;;;;;;37.80;23.15;;;17.60;90.50;;;;;;9183347;19;20090;-69
2023/09/02 07:23:51;;;;;;;42.00;22.08;;;17.60;90.70;;;;;;9182860;19;20011;-70
2023/09/02 07:27:00;;;;;;;44.83;22.30;;;17.70;91.00;;;;;;9179413;19;20059;-70
2023/09/02 07:30:11;;;;;;;37.42;23.00;;;17.70;91.00;;;;;;9182394;19;20101;-68
2023/09/02 07:33:17;;;;;;;40.25;22.45;;;17.80;91.20;;;;;;9181703;19;20017;-70
2023/09/02 07:36:25;;;;;;;40.08;22.75;;;17.80;91.60;;;;;;9179789;19;20025;-67
2023/09/02 07:39:30;;;;;;;32.42;21.75;;;17.80;92.20;;;;;;9181438;19;20018;-68
2023/09/02 07:42:38;;;;;;;42.15;22.35;;;17.90;93.40;;;;;;9180586;19;20355;-71
2023/09/02 07:45:47;;;;;;;37.03;21.85;;;18.00;91.20;;;;;;9181771;19;20022;-67
2023/09/02 07:48:55;;;;;;;32.20;21.63;;;17.70;91.40;;;;;;9179954;19;20019;-68
2023/09/02 07:52:01;;;;;;;38.17;21.42;;;18.10;91.60;;;;;;9181274;19;20006;-69
2023/09/02 07:55:09;;;;;;;35.97;22.63;;;18.10;91.20;;;;;;9180508;19;20014;-68
2023/09/02 07:58:14;;;;;;;37.28;23.13;;;18.20;91.50;;;;;;9181366;19;20130;-68
2023/09/02 08:01:25;;;;;;;41.38;23.15;;;18.30;91.50;;;;;;9179864;19;20059;-69
2023/09/02 08:04:31;;;;;;;40.00;24.48;;;18.30;90.20;;;;;;9181212;19;20469;-68
2023/09/02 08:07:39;;;;;;;39.13;25.13;;;18.30;90.40;;;;;;9179906;19;20018;-69
2023/09/02 08:10:44;;;;;;;40.35;25.60;;;18.50;90.90;;;;;;9178682;19;20015;-68
2023/09/02 08:13:51;;;;;;;45.72;27.98;;;18.50;91.70;;;;;;9179650;19;20014;-67
2023/09/02 08:16:59;;;;;;;48.35;27.65;;;18.60;90.70;;;;;;9179781;19;20015;-69
2023/09/02 08:20:08;;;;;;;43.60;26.40;;;18.70;91.20;;;;;;9179472;19;20384;-68
2023/09/02 08:23:14;;;;;;;40.22;25.55;;;18.70;89.40;;;;;;9180710;19;20014;-70
2023/09/02 08:26:21;;;;;;;42.03;24.85;;;18.80;89.90;;;;;;9175746;19;20033;-69
2023/09/02 08:29:26;;;;;;;41.75;24.25;;;18.90;90.00;;;;;;9177811;19;20357;-70
2023/09/02 08:32:36;;;;;;;43.92;23.13;;;19.00;90.80;;;;;;9178133;19;20042;-67
2023/09/02 08:35:42;;;;;;;39.88;22.95;;;19.10;89.40;;;;;;9179254;19;20015;-71
2023/09/02 08:38:51;;;;;;;36.28;21.45;;;19.00;88.80;;;;;;9176956;19;20853;-69
2023/09/02 08:41:57;;;;;;;35.85;22.05;;;19.20;89.50;;;;;;9177874;19;20014;-68
2023/09/02 08:45:09;;;;;;;34.05;22.30;;;19.20;88.90;;;;;;9177595;19;20011;-72
2023/09/02 08:48:23;;;;;;;38.33;22.88;;;19.30;88.80;;;;;;9179716;19;20013;-67
2023/09/02 08:51:33;;;;;;;41.22;22.25;;;19.40;88.40;;;;;;9179252;19;20014;-67
2023/09/02 08:54:40;;;;;;;39.72;23.45;;;19.40;88.80;;;;;;9179741;19;20426;-68
2023/09/02 08:57:47;;;;;;;40.85;22.67;;;19.50;88.70;;;;;;9178060;19;20014;-68
2023/09/02 09:00:54;;;;;;;37.95;21.13;;;19.60;88.90;;;;;;9177078;19;20014;-69
2023/09/02 09:04:05;;;;;;;36.20;22.27;;;19.70;88.80;;;;;;9178465;19;20014;-69
2023/09/02 09:07:12;;;;;;;46.15;23.17;;;19.80;88.90;;;;;;9178139;19;20078;-68
2023/09/02 09:10:21;;;;;;;40.55;23.13;;;19.90;89.20;;;;;;9173676;19;20451;-68
2023/09/02 09:13:28;;;;;;;42.47;23.85;;;19.90;89.10;;;;;;9172123;19;20021;-68
2023/09/02 09:16:39;;;;;;;40.13;22.65;;;20.00;89.30;;;;;;9174104;19;20051;-68
2023/09/02 09:19:47;;;;;;;43.67;23.52;;;20.10;89.70;;;;;;9172820;19;20049;-68
2023/09/02 09:22:55;;;;;;;43.40;23.73;;;20.20;90.10;;;;;;9172531;19;20018;-69
2023/09/02 09:26:00;;;;;;;37.97;22.67;;;20.30;90.20;;;;;;9171839;19;20033;-68
2023/09/02 09:29:13;;;;;;;39.63;23.10;;;20.40;90.40;;;;;;9175909;19;20014;-69
2023/09/02 09:32:22;;;;;;;39.13;23.10;;;20.50;90.60;;;;;;9175630;19;20020;-66
2023/09/02 09:35:32;;;;;;;47.00;24.75;;;20.60;91.00;;;;;;9177047;19;20022;-68
2023/09/02 09:38:41;;;;;;;40.45;24.48;;;20.60;91.70;;;;;;9173589;19;20021;-68
2023/09/02 09:41:49;;;;;;;40.97;23.52;;;20.70;90.40;;;;;;9186467;19;20483;-68
2023/09/02 09:44:56;;;;;;;41.45;25.65;;;20.80;90.20;;;;;;9184539;19;20011;-69
2023/09/02 09:48:12;;;;;;;45.85;25.40;;;20.90;90.30;;;;;;9186655;19;20101;-67
2023/09/02 09:51:26;;;;;;;41.08;25.30;;;21.00;90.10;;;;;;9184036;19;20014;-68
2023/09/02 09:54:38;;;;;;;47.72;25.20;;;21.10;90.10;;;;;;9186057;19;20766;-68
2023/09/02 09:57:44;;;;;;;40.20;24.70;;;21.20;90.20;;;;;;9183521;19;20014;-68
2023/09/02 10:00:53;;;;;;;41.88;25.38;;;21.50;90.30;;;;;;9184369;19;20018;-68
2023/09/02 10:03:59;;;;;;;39.17;24.42;;;21.50;90.30;;;;;;9183018;19;20361;-70
2023/09/02 10:07:09;;;;;;;41.15;25.92;;;21.60;90.50;;;;;;9184049;19;20010;-68
2023/09/02 10:10:14;;;;;;;40.90;25.52;;;21.70;91.00;;;;;;9183539;19;20015;-68
2023/09/02 10:13:22;;;;;;;43.72;24.40;;;21.80;90.90;;;;;;9181797;19;20484;-68
2023/09/02 10:16:30;;;;;;;47.20;27.00;;;21.90;90.70;;;;;;9184030;19;20025;-68
2023/09/02 10:19:38;;;;;;;46.88;28.25;;;22.00;90.20;;;;;;9181953;19;20010;-68
2023/09/02 10:22:50;;;;;;;40.55;25.88;;;22.00;90.10;;;;;;9183250;19;20039;-69
2023/09/02 10:26:06;;;;;;;39.88;25.70;;;22.00;89.50;;;;;;9177595;19;20011;-68
2023/09/02 10:29:13;;;;;;;39.97;24.70;;;22.20;89.70;;;;;;9183646;19;20022;-68
2023/09/02 10:32:23;;;;;;;35.35;21.83;;;22.20;89.20;;;;;;9184774;19;20007;-68
2023/09/02 10:35:33;;;;;;;32.92;21.65;;;22.30;89.30;;;;;;9183484;19;20025;-68
2023/09/02 10:38:46;;;;;;;37.92;22.67;;;22.50;89.60;;;;;;9179232;19;20017;-70
2023/09/02 10:41:52;;;;;;;35.60;22.60;;;22.50;89.30;;;;;;9182366;19;20019;-68
2023/09/02 10:45:00;;;;;;;36.72;22.27;;;22.60;89.60;;;;;;9181916;19;20033;-68
2023/09/02 10:48:07;;;;;;;34.85;21.65;;;22.70;89.70;;;;;;9182541;19;20046;-69
2023/09/02 10:51:15;;;;;;;37.38;24.25;;;22.80;90.10;;;;;;9180629;19;20015;-66
2023/09/02 10:54:23;;;;;;;38.78;24.17;;;22.80;88.50;;;;;;9184275;19;20367;-67
2023/09/02 10:57:31;;;;;;;35.17;23.38;;;22.90;88.10;;;;;;9182452;19;20364;-66
2023/09/02 11:00:48;;;;;;;35.05;24.70;;;23.00;88.80;;;;;;9180117;19;20044;-68
2023/09/02 11:03:56;;;;;;;37.28;25.02;;;23.00;89.30;;;;;;9183584;19;20018;-70
2023/09/02 11:07:27;;;;;;;36.90;23.02;;;23.20;88.80;;;;;;9183334;19;20010;-68
2023/09/02 11:10:55;;;;;;;43.97;26.05;;;23.00;86.50;;;;;;9181161;19;20479;-68
2023/09/02 11:14:25;;;;;;;38.83;24.88;;;23.40;90.10;;;;;;9183972;19;20026;-68
2023/09/02 11:17:33;;;;;;;34.38;23.98;;;23.10;86.40;;;;;;9183191;19;20014;-68
2023/09/02 11:20:52;;;;;;;38.25;24.52;;;23.00;88.70;;;;;;9180822;19;20478;-69
2023/09/02 11:24:17;;;;;;;31.88;22.20;;;23.30;89.50;;;;;;9177108;19;20007;-68
2023/09/02 11:27:46;;;;;;;37.53;23.77;;;23.00;85.40;;;;;;9176337;19;20357;-68
2023/09/02 11:31:05;;;;;;;43.30;26.15;;;23.10;87.00;;;;;;9179117;19;20484;-69
2023/09/02 11:34:11;;;;;;;35.75;23.33;;;23.10;87.80;;;;;;9181018;19;20506;-70
2023/09/02 11:37:32;;;;;;;36.65;22.83;;;23.10;89.40;;;;;;9173569;19;20030;-70
2023/09/02 11:40:38;;;;;;;36.20;22.75;;;23.10;92.00;;;;;;9178172;19;20026;-69
2023/09/02 11:43:48;;;;;;;38.13;23.02;;;23.10;90.10;;;;;;9181923;19;20007;-69
2023/09/02 11:46:54;;;;;;;39.10;23.50;;;23.20;85.50;;;;;;9180421;19;20056;-69
2023/09/02 11:50:02;;;;;;;36.22;23.00;;;;;;;;;;9179749;19;20006;-72
2023/09/02 11:53:08;;;;;;;37.03;21.50;;;23.00;79.10;;;;;;9179979;19;20018;-73
2023/09/02 11:56:16;;;;;;;36.65;23.23;;;23.10;82.80;;;;;;9180666;19;20010;-75
2023/09/02 11:59:27;;;;;;;34.28;22.52;;;23.10;79.50;;;;;;9178175;19;20018;-63
2023/09/02 12:02:38;;;;;;;35.35;21.73;;;23.20;79.30;;;;;;9178013;19;20025;-62
2023/09/02 12:05:52;;;;;;;37.13;21.10;;;23.30;81.50;;;;;;9178389;19;20015;-66
2023/09/02 12:09:00;;;;;;;32.85;21.48;;;23.20;79.10;;;;;;9178146;19;20014;-64
2023/09/02 12:12:06;;;;;;;35.42;20.83;;;23.20;79.10;;;;;;9178765;19;20034;-65
2023/09/02 12:15:17;;;;;;;35.58;21.40;;;23.20;79.10;;;;;;9179998;19;20014;-62
2023/09/02 12:18:24;;;;;;;37.25;22.13;;;23.20;79.00;;;;;;9177530;19;20114;-65
2023/09/02 12:21:36;;;;;;;31.27;20.75;;;23.30;79.00;;;;;;9177542;19;20019;-62
2023/09/02 12:24:41;;;;;;;30.55;19.10;;;23.40;79.00;;;;;;9179260;19;20018;-65
2023/09/02 12:27:49;;;;;;;30.10;19.15;;;23.50;78.90;;;;;;9175104;19;20018;-63
2023/09/02 12:30:57;;;;;;;27.60;18.48;;;23.60;78.80;;;;;;9178174;19;20018;-62
2023/09/02 12:34:06;;;;;;;30.55;17.88;;;23.70;78.40;;;;;;9178246;19;20475;-62
2023/09/02 12:37:19;;;;;;;27.55;18.60;;;23.70;78.10;;;;;;9178250;19;20104;-61
2023/09/02 12:40:26;;;;;;;32.20;18.67;;;23.70;77.90;;;;;;9175980;19;20002;-61
2023/09/02 12:43:31;;;;;;;25.95;17.02;;;23.80;78.30;;;;;;9178772;19;20066;-64
2023/09/02 12:46:41;;;;;;;28.10;17.67;;;23.90;79.90;;;;;;9179162;19;20014;-63
2023/09/02 12:49:47;;;;;;;31.52;17.33;;;24.00;79.10;;;;;;9176862;19;20365;-62
2023/09/02 12:52:58;;;;;;;30.58;17.52;;;;;;;;;;9175827;19;20006;-63
2023/09/02 12:56:04;;;;;;;26.23;15.20;;;24.00;79.50;;;;;;9177043;19;20023;-63
2023/09/02 12:59:16;;;;;;;26.25;16.63;;;24.10;83.90;;;;;;9177927;19;20020;-64
2023/09/02 13:02:25;;;;;;;24.67;16.13;;;24.00;84.30;;;;;;9174694;19;20361;-65
2023/09/02 13:05:33;;;;;;;27.48;16.25;;;24.10;86.20;;;;;;9178414;19;20025;-63
2023/09/02 13:08:38;;;;;;;25.13;14.43;;;24.10;89.40;;;;;;9178810;19;20675;-70
2023/09/02 13:11:45;;;;;;;28.15;14.93;;;24.10;79.00;;;;;;9179163;19;20014;-69
2023/09/02 13:14:51;;;;;;;25.00;14.32;;;24.20;78.10;;;;;;9174448;19;20021;-68
2023/09/02 13:18:01;;;;;;;25.83;14.40;;;24.20;77.80;;;;;;9175715;19;20471;-67
2023/09/02 13:21:06;;;;;;;22.60;13.73;;;24.30;78.00;;;;;;9176006;19;20013;-70
2023/09/02 13:24:18;;;;;;;24.63;14.23;;;24.40;80.10;;;;;;9176895;19;20024;-70
2023/09/02 13:27:23;;;;;;;25.17;14.85;;;24.40;81.80;;;;;;9174159;19;20019;-70
2023/09/02 13:30:31;;;;;;;24.95;13.98;;;24.50;81.00;;;;;;9177399;19;20025;-69
2023/09/02 13:33:43;;;;;;;20.52;13.32;;;24.40;78.40;;;;;;9177384;19;20049;-69
2023/09/02 13:36:50;;;;;;;23.88;13.02;;;24.50;78.10;;;;;;9175825;19;20019;-68
2023/09/02 13:39:57;;;;;;;19.70;11.65;;;24.50;78.60;;;;;;9174851;19;20641;-68
2023/09/02 13:43:08;;;;;;;22.38;12.63;;;24.50;78.60;;;;;;9177835;19;20010;-70
2023/09/02 13:46:14;;;;;;;25.70;13.73;;;24.60;79.10;;;;;;9176190;19;20479;-68
2023/09/02 13:49:25;;;;;;;25.08;13.70;;;24.60;80.60;;;;;;9176216;19;20015;-69
2023/09/02 13:52:30;;;;;;;23.92;12.65;;;24.60;82.60;;;;;;9175449;19;20018;-69
2023/09/02 13:55:40;;;;;;;31.55;15.05;;;24.50;75.10;;;;;;9175419;19;20022;-70
2023/09/02 13:58:46;;;;;;;24.83;13.38;;;24.50;75.00;;;;;;9174088;19;20345;-71
2023/09/02 14:01:54;;;;;;;20.38;12.65;;;24.60;75.00;;;;;;9175132;19;20023;-69
2023/09/02 14:05:02;;;;;;;24.10;12.25;;;24.50;75.40;;;;;;9175493;19;20378;-70
2023/09/02 14:08:09;;;;;;;22.90;11.55;;;24.40;73.80;;;;;;9174563;19;20010;-70
2023/09/02 14:11:16;;;;;;;19.17;9.57;;;24.50;74.60;;;;;;9176956;19;20015;-70
2023/09/02 14:14:24;;;;;;;22.52;12.00;;;24.40;79.20;;;;;;9174237;19;20014;-67
2023/09/02 14:17:30;;;;;;;24.77;12.00;;;24.40;77.00;;;;;;9175581;19;20021;-70
2023/09/02 14:20:41;;;;;;;21.70;10.95;;;24.70;76.50;;;;;;9174585;19;20056;-70
2023/09/02 14:23:46;;;;;;;19.38;10.52;;;24.40;75.80;;;;;;9175838;19;20086;-70
2023/09/02 14:27:10;;;;;;;18.13;9.88;;;24.40;75.70;;;;;;9177455;19;20863;-70
2023/09/02 14:30:16;;;;;;;19.27;10.60;;;24.30;73.70;;;;;;9181889;19;20019;-69
2023/09/02 14:33:23;;;;;;;15.95;8.93;;;24.30;73.90;;;;;;9183561;19;20018;-73
2023/09/02 14:36:31;;;;;;;14.70;8.32;;;24.30;73.80;;;;;;9181790;19;20022;-69
2023/09/02 14:39:39;;;;;;;14.55;8.10;;;24.30;73.80;;;;;;9183811;19;20010;-69
2023/09/02 14:42:44;;;;;;;11.60;6.68;;;24.30;74.00;;;;;;9184322;19;20018;-70
2023/09/02 14:45:51;;;;;;;12.40;7.38;;;24.30;76.20;;;;;;9187898;19;20014;-68
2023/09/02 14:48:57;;;;;;;11.50;6.68;;;24.30;74.50;;;;;;9185912;19;20486;-70
2023/09/02 14:52:08;;;;;;;11.63;6.47;;;24.30;74.90;;;;;;9185065;19;20014;-69
2023/09/02 14:55:16;;;;;;;10.50;5.78;;;24.30;74.30;;;;;;9181346;19;20010;-67
2023/09/02 14:58:24;;;;;;;10.65;6.13;;;24.20;72.90;;;;;;9184410;19;20102;-69
2023/09/02 15:01:30;;;;;;;10.18;5.50;;;24.20;72.90;;;;;;9181573;19;20030;-69
2023/09/02 15:04:38;;;;;;;7.43;4.07;;;24.20;72.90;;;;;;9181877;19;20486;-69
2023/09/02 15:07:51;;;;;;;7.32;4.32;;;24.20;72.80;;;;;;9181784;19;20007;-71
2023/09/02 15:11:01;;;;;;;6.25;3.30;;;24.20;72.50;;;;;;9183467;19;20007;-69
2023/09/02 15:14:07;;;;;;;4.93;2.85;;;24.20;72.60;;;;;;9180913;19;20029;-67
2023/09/02 15:17:15;;;;;;;5.75;2.60;;;24.20;72.70;;;;;;9183758;19;20019;-67
2023/09/02 15:20:26;;;;;;;2.90;1.98;;;24.20;72.60;;;;;;9180792;19;20451;-67
2023/09/02 15:23:36;;;;;;;3.72;1.88;;;24.30;72.50;;;;;;9179954;19;20106;-67
2023/09/02 15:26:42;;;;;;;2.75;1.98;;;24.20;72.50;;;;;;9176683;19;20090;-67
2023/09/02 15:29:50;;;;;;;3.15;1.92;;;24.30;73.50;;;;;;9182315;19;20022;-69
2023/09/02 15:32:57;;;;;;;3.88;2.00;;;24.30;74.20;;;;;;9181933;19;20022;-68
2023/09/02 15:36:05;;;;;;;3.88;2.10;;;24.30;76.00;;;;;;9180129;19;20014;-69
2023/09/02 15:39:14;;;;;;;3.30;2.20;;;24.30;76.60;;;;;;9178207;19;20048;-68
2023/09/02 15:42:21;;;;;;;3.55;1.98;;;24.20;77.20;;;;;;9178333;19;20010;-69
2023/09/02 15:45:30;;;;;;;3.50;2.10;;;24.10;74.00;;;;;;9179109;19;20479;-67
2023/09/02 15:48:37;;;;;;;4.20;1.70;;;24.10;71.70;;;;;;9179941;19;20025;-68
2023/09/02 15:51:42;;;;;;;3.08;1.63;;;23.60;71.40;;;;;;9181244;19;20018;-69
2023/09/02 15:54:52;;;;;;;4.97;1.75;;;24.00;70.90;;;;;;9181009;19;20025;-68
2023/09/02 15:57:58;;;;;;;2.63;1.63;;;24.00;71.30;;;;;;9181400;19;20095;-67
2023/09/02 16:01:06;;;;;;;4.53;1.67;;;24.00;71.30;;;;;;9179405;19;20480;-67